sensor_id;sensor_type;location;lat;lon;timestamp;pressure;altitude;pressure_sealevel;temperature;humidity
69848;BME280;57143;55.940;37.496;2023-02-19T00:01:00;96218.81;;;-6.11;100.00
69848;BME280;57143;55.940;37.496;2023-02-19T00:03:28;96211.69;;;-6.17;100.00
69848;BME280;57143;55.940;37.496;2023-02-19T00:05:56;96205.59;;;-6.18;100.00
69848;BME280;57143;55.940;37.496;2023-02-19T00:08:23;96201.34;;;-6.19;100.00
69848;BME280;57143;55.940;37.496;2023-02-19T00:10:50;96193.84;;;-6.15;100.00
69848;BME280;57143;55.940;37.496;2023-02-19T00:13:19;96186.78;;;-6.15;100.00
69848;BME280;57143;55.940;37.496;2023-02-19T00:15:46;96162.03;;;-6.27;100.00
69848;BME280;57143;55.940;37.496;2023-02-19T00:18:13;96147.00;;;-6.33;100.00
69848;BME280;57143;55.940;37.496;2023-02-19T00:20:40;96150.25;;;-6.18;100.00
69848;BME280;57143;55.940;37.496;2023-02-19T00:23:07;96145.81;;;-6.24;100.00
69848;BME280;57143;55.940;37.496;2023-02-19T00:25:35;96129.59;;;-6.14;100.00
69848;BME280;57143;55.940;37.496;2023-02-19T00:28:03;96116.41;;;-6.21;100.00
69848;BME280;57143;55.940;37.496;2023-02-19T00:30:32;96121.69;;;-6.14;100.00
69848;BME280;57143;55.940;37.496;2023-02-19T00:32:59;96113.41;;;-6.11;100.00
69848;BME280;57143;55.940;37.496;2023-02-19T00:35:26;96106.69;;;-6.14;100.00
69848;BME280;57143;55.940;37.496;2023-02-19T00:37:53;96103.44;;;-6.16;100.00
69848;BME280;57143;55.940;37.496;2023-02-19T00:40:20;96094.34;;;-6.20;100.00
69848;BME280;57143;55.940;37.496;2023-02-19T00:42:50;96096.16;;;-6.20;100.00
69848;BME280;57143;55.940;37.496;2023-02-19T00:45:17;96087.22;;;-6.19;100.00
69848;BME280;57143;55.940;37.496;2023-02-19T00:47:46;96080.97;;;-6.25;100.00
69848;BME280;57143;55.940;37.496;2023-02-19T00:50:13;96053.38;;;-6.42;100.00
69848;BME280;57143;55.940;37.496;2023-02-19T00:52:40;96081.75;;;-6.24;100.00
69848;BME280;57143;55.940;37.496;2023-02-19T00:55:07;96061.91;;;-6.27;100.00
69848;BME280;57143;55.940;37.496;2023-02-19T00:57:34;96066.34;;;-6.34;100.00
69848;BME280;57143;55.940;37.496;2023-02-19T01:00:02;96050.56;;;-6.34;100.00
69848;BME280;57143;55.940;37.496;2023-02-19T01:02:32;96040.22;;;-6.35;100.00
69848;BME280;57143;55.940;37.496;2023-02-19T01:05:00;96032.31;;;-6.35;100.00
69848;BME280;57143;55.940;37.496;2023-02-19T01:07:29;96058.88;;;-6.37;100.00
69848;BME280;57143;55.940;37.496;2023-02-19T01:09:56;96027.25;;;-6.37;100.00
69848;BME280;57143;55.940;37.496;2023-02-19T01:12:23;96038.59;;;-6.49;100.00
69848;BME280;57143;55.940;37.496;2023-02-19T01:14:52;96004.53;;;-6.77;100.00
69848;BME280;57143;55.940;37.496;2023-02-19T01:17:20;96027.03;;;-6.55;100.00
69848;BME280;57143;55.940;37.496;2023-02-19T01:19:47;96020.53;;;-6.59;100.00
69848;BME280;57143;55.940;37.496;2023-02-19T01:22:15;96016.09;;;-6.52;100.00
69848;BME280;57143;55.940;37.496;2023-02-19T01:24:43;95983.28;;;-6.82;100.00
69848;BME280;57143;55.940;37.496;2023-02-19T01:27:10;96024.00;;;-6.58;100.00
69848;BME280;57143;55.940;37.496;2023-02-19T01:29:37;96019.53;;;-6.58;100.00
69848;BME280;57143;55.940;37.496;2023-02-19T01:32:04;96020.94;;;-6.62;100.00
69848;BME280;57143;55.940;37.496;2023-02-19T01:34:31;96015.06;;;-6.64;100.00
69848;BME280;57143;55.940;37.496;2023-02-19T01:36:59;95992.97;;;-6.82;100.00
69848;BME280;57143;55.940;37.496;2023-02-19T01:39:28;96007.78;;;-6.68;100.00
69848;BME280;57143;55.940;37.496;2023-02-19T01:41:55;96006.56;;;-6.66;100.00
69848;BME280;57143;55.940;37.496;2023-02-19T01:47:28;96009.97;;;-6.85;100.00
69848;BME280;57143;55.940;37.496;2023-02-19T01:49:56;95996.22;;;-6.80;100.00
69848;BME280;57143;55.940;37.496;2023-02-19T01:52:26;95929.56;;;-7.27;100.00
69848;BME280;57143;55.940;37.496;2023-02-19T01:54:58;95997.44;;;-6.83;100.00
69848;BME280;57143;55.940;37.496;2023-02-19T01:57:32;95996.81;;;-6.85;100.00
69848;BME280;57143;55.940;37.496;2023-02-19T02:00:07;95979.56;;;-7.00;100.00
69848;BME280;57143;55.940;37.496;2023-02-19T02:02:36;95999.84;;;-6.81;100.00
69848;BME280;57143;55.940;37.496;2023-02-19T02:05:08;95989.94;;;-6.79;100.00
69848;BME280;57143;55.940;37.496;2023-02-19T02:07:37;95952.88;;;-7.04;100.00
69848;BME280;57143;55.940;37.496;2023-02-19T02:10:23;95991.97;;;-6.88;100.00
69848;BME280;57143;55.940;37.496;2023-02-19T02:12:52;95996.03;;;-6.85;100.00
69848;BME280;57143;55.940;37.496;2023-02-19T02:15:24;95991.13;;;-6.88;100.00
69848;BME280;57143;55.940;37.496;2023-02-19T02:17:56;95978.59;;;-6.99;100.00
69848;BME280;57143;55.940;37.496;2023-02-19T02:20:35;95998.66;;;-6.85;100.00
69848;BME280;57143;55.940;37.496;2023-02-19T02:23:13;96002.47;;;-6.88;100.00
69848;BME280;57143;55.940;37.496;2023-02-19T02:26:01;95987.72;;;-6.95;100.00
69848;BME280;57143;55.940;37.496;2023-02-19T02:28:45;95997.00;;;-6.93;100.00
69848;BME280;57143;55.940;37.496;2023-02-19T02:31:22;96007.34;;;-6.91;100.00
69848;BME280;57143;55.940;37.496;2023-02-19T02:33:56;96012.59;;;-6.91;100.00
69848;BME280;57143;55.940;37.496;2023-02-19T02:36:28;96013.41;;;-6.91;100.00
69848;BME280;57143;55.940;37.496;2023-02-19T02:38:57;96008.97;;;-6.90;100.00
69848;BME280;57143;55.940;37.496;2023-02-19T02:41:25;95995.19;;;-6.86;100.00
69848;BME280;57143;55.940;37.496;2023-02-19T02:43:53;95997.41;;;-6.96;100.00
69848;BME280;57143;55.940;37.496;2023-02-19T02:46:24;95991.75;;;-6.93;100.00
69848;BME280;57143;55.940;37.496;2023-02-19T02:48:54;95999.66;;;-6.93;100.00
69848;BME280;57143;55.940;37.496;2023-02-19T02:51:24;96018.25;;;-6.94;100.00
69848;BME280;57143;55.940;37.496;2023-02-19T02:53:56;95964.34;;;-7.25;100.00
69848;BME280;57143;55.940;37.496;2023-02-19T02:56:43;96004.69;;;-7.11;100.00
69848;BME280;57143;55.940;37.496;2023-02-19T02:59:13;96014.19;;;-6.97;100.00
69848;BME280;57143;55.940;37.496;2023-02-19T03:01:44;96018.25;;;-7.01;100.00
69848;BME280;57143;55.940;37.496;2023-02-19T03:04:33;95981.97;;;-7.19;100.00
69848;BME280;57143;55.940;37.496;2023-02-19T03:07:04;96007.13;;;-7.03;100.00
69848;BME280;57143;55.940;37.496;2023-02-19T03:09:36;95960.94;;;-7.25;100.00
69848;BME280;57143;55.940;37.496;2023-02-19T03:12:08;95996.59;;;-6.96;100.00
69848;BME280;57143;55.940;37.496;2023-02-19T03:15:00;95986.47;;;-6.93;100.00
69848;BME280;57143;55.940;37.496;2023-02-19T03:17:50;95986.91;;;-6.89;100.00
69848;BME280;57143;55.940;37.496;2023-02-19T03:20:39;95938.28;;;-7.20;100.00
69848;BME280;57143;55.940;37.496;2023-02-19T03:23:08;95944.34;;;-7.19;100.00
69848;BME280;57143;55.940;37.496;2023-02-19T03:25:37;95968.47;;;-6.96;100.00
69848;BME280;57143;55.940;37.496;2023-02-19T03:28:25;95970.69;;;-6.93;100.00
69848;BME280;57143;55.940;37.496;2023-02-19T03:31:09;95956.31;;;-7.03;100.00
69848;BME280;57143;55.940;37.496;2023-02-19T03:33:42;95963.00;;;-6.94;100.00
69848;BME280;57143;55.940;37.496;2023-02-19T03:36:13;95957.13;;;-7.03;100.00
69848;BME280;57143;55.940;37.496;2023-02-19T03:38:43;95955.72;;;-6.99;100.00
69848;BME280;57143;55.940;37.496;2023-02-19T03:41:21;95948.25;;;-6.95;100.00
69848;BME280;57143;55.940;37.496;2023-02-19T03:43:56;95929.38;;;-7.05;100.00
69848;BME280;57143;55.940;37.496;2023-02-19T03:46:35;95914.00;;;-7.15;100.00
69848;BME280;57143;55.940;37.496;2023-02-19T03:49:12;95927.16;;;-7.08;100.00
69848;BME280;57143;55.940;37.496;2023-02-19T03:51:44;95927.78;;;-7.06;100.00
69848;BME280;57143;55.940;37.496;2023-02-19T03:54:19;95927.97;;;-7.08;100.00
69848;BME280;57143;55.940;37.496;2023-02-19T03:56:52;95922.72;;;-7.08;100.00
69848;BME280;57143;55.940;37.496;2023-02-19T03:59:29;95908.53;;;-7.14;100.00
69848;BME280;57143;55.940;37.496;2023-02-19T04:02:00;95909.78;;;-7.09;100.00
69848;BME280;57143;55.940;37.496;2023-02-19T04:04:33;95899.03;;;-7.08;100.00
69848;BME280;57143;55.940;37.496;2023-02-19T04:07:02;95897.81;;;-7.12;100.00
69848;BME280;57143;55.940;37.496;2023-02-19T04:09:33;95903.88;;;-7.12;100.00
69848;BME280;57143;55.940;37.496;2023-02-19T04:12:03;95900.44;;;-7.05;100.00
69848;BME280;57143;55.940;37.496;2023-02-19T04:14:34;95879.59;;;-7.07;100.00
69848;BME280;57143;55.940;37.496;2023-02-19T04:17:06;95885.28;;;-7.10;100.00
69848;BME280;57143;55.940;37.496;2023-02-19T04:19:37;95879.19;;;-7.11;100.00
69848;BME280;57143;55.940;37.496;2023-02-19T04:22:07;95883.88;;;-7.06;100.00
69848;BME280;57143;55.940;37.496;2023-02-19T04:24:39;95893.38;;;-7.12;100.00
69848;BME280;57143;55.940;37.496;2023-02-19T04:27:08;95872.72;;;-7.21;100.00
69848;BME280;57143;55.940;37.496;2023-02-19T04:29:35;95877.59;;;-7.18;100.00
69848;BME280;57143;55.940;37.496;2023-02-19T04:32:03;95874.75;;;-7.17;100.00
69848;BME280;57143;55.940;37.496;2023-02-19T04:34:30;95877.78;;;-7.20;100.00
69848;BME280;57143;55.940;37.496;2023-02-19T04:36:59;95856.13;;;-7.22;100.00
69848;BME280;57143;55.940;37.496;2023-02-19T04:39:26;95834.47;;;-7.30;100.00
69848;BME280;57143;55.940;37.496;2023-02-19T04:41:53;95849.06;;;-7.15;100.00
69848;BME280;57143;55.940;37.496;2023-02-19T04:44:20;95849.22;;;-7.16;100.00
69848;BME280;57143;55.940;37.496;2023-02-19T04:46:47;95817.88;;;-7.31;100.00
69848;BME280;57143;55.940;37.496;2023-02-19T04:49:14;95839.53;;;-7.16;100.00
69848;BME280;57143;55.940;37.496;2023-02-19T04:51:41;95829.41;;;-7.12;100.00
69848;BME280;57143;55.940;37.496;2023-02-19T04:54:10;95828.41;;;-7.11;100.00
69848;BME280;57143;55.940;37.496;2023-02-19T04:56:38;95829.00;;;-7.09;100.00
69848;BME280;57143;55.940;37.496;2023-02-19T04:59:05;95825.38;;;-7.08;100.00
69848;BME280;57143;55.940;37.496;2023-02-19T05:01:32;95807.38;;;-7.11;100.00
69848;BME280;57143;55.940;37.496;2023-02-19T05:03:59;95809.19;;;-7.05;100.00
69848;BME280;57143;55.940;37.496;2023-02-19T05:06:26;95795.22;;;-7.05;100.00
69848;BME280;57143;55.940;37.496;2023-02-19T05:08:53;95798.25;;;-7.02;100.00
69848;BME280;57143;55.940;37.496;2023-02-19T05:11:22;95806.16;;;-7.08;100.00
69848;BME280;57143;55.940;37.496;2023-02-19T05:13:49;95785.91;;;-7.08;100.00
69848;BME280;57143;55.940;37.496;2023-02-19T05:16:16;95807.56;;;-7.06;100.00
69848;BME280;57143;55.940;37.496;2023-02-19T05:18:45;95812.22;;;-7.08;100.00
69848;BME280;57143;55.940;37.496;2023-02-19T05:21:13;95810.41;;;-7.07;100.00
69848;BME280;57143;55.940;37.496;2023-02-19T05:23:41;95803.50;;;-7.08;100.00
69848;BME280;57143;55.940;37.496;2023-02-19T05:26:11;95793.63;;;-7.13;100.00
69848;BME280;57143;55.940;37.496;2023-02-19T05:28:41;95747.09;;;-7.39;100.00
69848;BME280;57143;55.940;37.496;2023-02-19T05:31:09;95793.81;;;-7.08;100.00
69848;BME280;57143;55.940;37.496;2023-02-19T05:33:37;95772.56;;;-7.13;100.00
69848;BME280;57143;55.940;37.496;2023-02-19T05:36:06;95780.44;;;-7.00;100.00
69848;BME280;57143;55.940;37.496;2023-02-19T05:38:34;95769.72;;;-7.05;100.00
69848;BME280;57143;55.940;37.496;2023-02-19T05:41:08;95773.16;;;-6.98;100.00
69848;BME280;57143;55.940;37.496;2023-02-19T05:43:36;95763.41;;;-6.91;100.00
69848;BME280;57143;55.940;37.496;2023-02-19T05:46:06;95745.03;;;-7.11;100.00
69848;BME280;57143;55.940;37.496;2023-02-19T05:48:33;95760.78;;;-6.91;100.00
69848;BME280;57143;55.940;37.496;2023-02-19T05:51:01;95764.84;;;-6.95;100.00
69848;BME280;57143;55.940;37.496;2023-02-19T05:53:29;95766.66;;;-6.89;100.00
69848;BME280;57143;55.940;37.496;2023-02-19T05:55:56;95771.09;;;-6.89;100.00
69848;BME280;57143;55.940;37.496;2023-02-19T05:58:24;95754.53;;;-6.96;100.00
69848;BME280;57143;55.940;37.496;2023-02-19T06:00:51;95783.84;;;-6.86;100.00
69848;BME280;57143;55.940;37.496;2023-02-19T06:03:20;95776.78;;;-6.86;100.00
69848;BME280;57143;55.940;37.496;2023-02-19T06:05:47;95770.91;;;-6.88;100.00
69848;BME280;57143;55.940;37.496;2023-02-19T06:08:15;95779.59;;;-6.87;100.00
69848;BME280;57143;55.940;37.496;2023-02-19T06:10:42;95773.53;;;-6.88;100.00
69848;BME280;57143;55.940;37.496;2023-02-19T06:13:09;95766.06;;;-6.91;100.00
69848;BME280;57143;55.940;37.496;2023-02-19T06:15:37;95769.47;;;-6.77;100.00
69848;BME280;57143;55.940;37.496;2023-02-19T06:18:04;95787.06;;;-6.78;100.00
69848;BME280;57143;55.940;37.496;2023-02-19T06:20:32;95754.53;;;-6.96;100.00
69848;BME280;57143;55.940;37.496;2023-02-19T06:22:59;95758.53;;;-6.81;100.00
69848;BME280;57143;55.940;37.496;2023-02-19T06:25:27;95799.81;;;-6.68;100.00
69848;BME280;57143;55.940;37.496;2023-02-19T06:27:54;95797.16;;;-6.62;100.00
69848;BME280;57143;55.940;37.496;2023-02-19T06:30:21;95777.13;;;-6.69;100.00
69848;BME280;57143;55.940;37.496;2023-02-19T06:32:50;95802.41;;;-6.55;100.00
69848;BME280;57143;55.940;37.496;2023-02-19T06:35:18;95809.09;;;-6.53;100.00
69848;BME280;57143;55.940;37.496;2023-02-19T06:37:47;95801.59;;;-6.49;100.00
69848;BME280;57143;55.940;37.496;2023-02-19T06:40:15;95809.50;;;-6.49;100.00
69848;BME280;57143;55.940;37.496;2023-02-19T06:42:42;95756.69;;;-6.74;100.00
69848;BME280;57143;55.940;37.496;2023-02-19T06:45:09;95796.91;;;-6.41;100.00
69848;BME280;57143;55.940;37.496;2023-02-19T06:47:36;95792.44;;;-6.40;100.00
69848;BME280;57143;55.940;37.496;2023-02-19T06:50:04;95792.03;;;-6.37;100.00
69848;BME280;57143;55.940;37.496;2023-02-19T06:52:31;95781.69;;;-6.45;100.00
69848;BME280;57143;55.940;37.496;2023-02-19T06:55:00;95800.31;;;-6.34;100.00
69848;BME280;57143;55.940;37.496;2023-02-19T06:57:29;95748.75;;;-6.61;100.00
69848;BME280;57143;55.940;37.496;2023-02-19T06:59:56;95796.69;;;-6.39;100.00
69848;BME280;57143;55.940;37.496;2023-02-19T07:02:23;95799.69;;;-6.29;100.00
69848;BME280;57143;55.940;37.496;2023-02-19T07:04:50;95787.06;;;-6.14;100.00
69848;BME280;57143;55.940;37.496;2023-02-19T07:07:18;95794.78;;;-6.13;100.00
69848;BME280;57143;55.940;37.496;2023-02-19T07:09:45;95815.22;;;-6.08;100.00
69848;BME280;57143;55.940;37.496;2023-02-19T07:12:13;95819.66;;;-6.09;100.00
69848;BME280;57143;55.940;37.496;2023-02-19T07:14:40;95832.03;;;-6.03;100.00
69848;BME280;57143;55.940;37.496;2023-02-19T07:17:07;95845.44;;;-6.17;100.00
69848;BME280;57143;55.940;37.496;2023-02-19T07:19:35;95839.69;;;-5.95;100.00
69848;BME280;57143;55.940;37.496;2023-02-19T07:22:02;95839.84;;;-5.89;100.00
69848;BME280;57143;55.940;37.496;2023-02-19T07:24:29;95841.28;;;-5.87;100.00
69848;BME280;57143;55.940;37.496;2023-02-19T07:26:56;95845.44;;;-5.73;100.00
69848;BME280;57143;55.940;37.496;2023-02-19T07:29:24;95870.41;;;-5.82;100.00
69848;BME280;57143;55.940;37.496;2023-02-19T07:31:51;95877.28;;;-5.81;100.00
69848;BME280;57143;55.940;37.496;2023-02-19T07:34:19;95891.69;;;-5.77;100.00
69848;BME280;57143;55.940;37.496;2023-02-19T07:36:46;95911.41;;;-5.86;100.00
69848;BME280;57143;55.940;37.496;2023-02-19T07:39:13;95869.69;;;-6.02;100.00
69848;BME280;57143;55.940;37.496;2023-02-19T07:41:40;95919.94;;;-5.84;100.00
69848;BME280;57143;55.940;37.496;2023-02-19T07:44:07;95930.63;;;-5.79;100.00
69848;BME280;57143;55.940;37.496;2023-02-19T07:46:39;95934.72;;;-5.83;100.00
69848;BME280;57143;55.940;37.496;2023-02-19T07:49:06;95946.72;;;-5.94;100.00
69848;BME280;57143;55.940;37.496;2023-02-19T07:51:34;95950.56;;;-5.89;100.00
69848;BME280;57143;55.940;37.496;2023-02-19T07:54:01;95897.91;;;-6.03;100.00
69848;BME280;57143;55.940;37.496;2023-02-19T07:56:28;95958.28;;;-5.95;100.00
69848;BME280;57143;55.940;37.496;2023-02-19T07:58:55;95950.59;;;-5.96;100.00
69848;BME280;57143;55.940;37.496;2023-02-19T08:01:23;95947.13;;;-5.83;100.00
69848;BME280;57143;55.940;37.496;2023-02-19T08:04:13;95954.56;;;-5.80;100.00
69848;BME280;57143;55.940;37.496;2023-02-19T08:06:39;95974.28;;;-5.89;100.00
69848;BME280;57143;55.940;37.496;2023-02-19T08:09:06;95935.63;;;-6.15;100.00
69848;BME280;57143;55.940;37.496;2023-02-19T08:11:34;95960.91;;;-5.88;100.00
69848;BME280;57143;55.940;37.496;2023-02-19T08:14:18;95946.72;;;-5.87;100.00
69848;BME280;57143;55.940;37.496;2023-02-19T08:16:49;95892.00;;;-5.98;100.00
69848;BME280;57143;55.940;37.496;2023-02-19T08:19:18;95921.50;;;-5.76;100.00
69848;BME280;57143;55.940;37.496;2023-02-19T08:21:45;95916.34;;;-5.58;100.00
69848;BME280;57143;55.940;37.496;2023-02-19T08:24:13;95863.84;;;-5.66;100.00
69848;BME280;57143;55.940;37.496;2023-02-19T08:26:40;95890.09;;;-5.47;100.00
69848;BME280;57143;55.940;37.496;2023-02-19T08:29:07;95892.34;;;-5.44;100.00
69848;BME280;57143;55.940;37.496;2023-02-19T08:31:34;95880.53;;;-5.41;100.00
69848;BME280;57143;55.940;37.496;2023-02-19T08:34:02;95892.31;;;-5.37;100.00
69848;BME280;57143;55.940;37.496;2023-02-19T08:36:30;95892.63;;;-5.27;100.00
69848;BME280;57143;55.940;37.496;2023-02-19T08:38:57;95899.78;;;-5.34;100.00
69848;BME280;57143;55.940;37.496;2023-02-19T08:41:25;95896.19;;;-5.46;100.00
69848;BME280;57143;55.940;37.496;2023-02-19T08:43:52;95899.88;;;-5.54;100.00
69848;BME280;57143;55.940;37.496;2023-02-19T08:46:19;95920.16;;;-5.48;100.00
69848;BME280;57143;55.940;37.496;2023-02-19T08:48:47;95917.25;;;-5.40;100.00
69848;BME280;57143;55.940;37.496;2023-02-19T08:51:14;95914.41;;;-5.32;100.00
69848;BME280;57143;55.940;37.496;2023-02-19T08:53:46;95914.44;;;-5.45;100.00
69848;BME280;57143;55.940;37.496;2023-02-19T08:56:14;95925.25;;;-5.53;100.00
69848;BME280;57143;55.940;37.496;2023-02-19T08:58:44;95916.97;;;-5.63;100.00
69848;BME280;57143;55.940;37.496;2023-02-19T09:01:16;95869.03;;;-5.53;100.00
69848;BME280;57143;55.940;37.496;2023-02-19T09:03:44;95853.25;;;-5.60;100.00
69848;BME280;57143;55.940;37.496;2023-02-19T09:06:14;95884.94;;;-5.29;100.00
69848;BME280;57143;55.940;37.496;2023-02-19T09:08:43;95903.59;;;-5.24;100.00
69848;BME280;57143;55.940;37.496;2023-02-19T09:11:10;95902.97;;;-5.26;100.00
69848;BME280;57143;55.940;37.496;2023-02-19T09:13:38;95913.25;;;-5.11;100.00
69848;BME280;57143;55.940;37.496;2023-02-19T09:16:05;95920.63;;;-5.20;100.00
69848;BME280;57143;55.940;37.496;2023-02-19T09:18:32;95911.66;;;-5.19;100.00
69848;BME280;57143;55.940;37.496;2023-02-19T09:21:00;95934.81;;;-5.14;100.00
69848;BME280;57143;55.940;37.496;2023-02-19T09:23:29;95965.53;;;-5.33;100.00
69848;BME280;57143;55.940;37.496;2023-02-19T09:25:58;95944.25;;;-5.38;100.00
69848;BME280;57143;55.940;37.496;2023-02-19T09:28:26;95866.59;;;-5.86;100.00
69848;BME280;57143;55.940;37.496;2023-02-19T09:30:53;95937.72;;;-5.29;100.00
69848;BME280;57143;55.940;37.496;2023-02-19T09:33:20;95943.06;;;-5.11;100.00
69848;BME280;57143;55.940;37.496;2023-02-19T09:35:48;95945.94;;;-5.12;100.00
69848;BME280;57143;55.940;37.496;2023-02-19T09:38:15;95940.78;;;-5.32;100.00
69848;BME280;57143;55.940;37.496;2023-02-19T09:40:42;95934.22;;;-5.23;100.00
69848;BME280;57143;55.940;37.496;2023-02-19T09:43:16;95946.22;;;-5.27;100.00
69848;BME280;57143;55.940;37.496;2023-02-19T09:45:44;95952.28;;;-5.26;100.00
69848;BME280;57143;55.940;37.496;2023-02-19T09:48:12;95928.94;;;-5.23;100.00
69848;BME280;57143;55.940;37.496;2023-02-19T09:50:42;95929.75;;;-5.22;100.00
69848;BME280;57143;55.940;37.496;2023-02-19T09:53:15;95931.38;;;-5.21;100.00
69848;BME280;57143;55.940;37.496;2023-02-19T09:55:45;95917.53;;;-5.17;100.00
69848;BME280;57143;55.940;37.496;2023-02-19T09:58:24;95901.44;;;-5.02;100.00
69848;BME280;57143;55.940;37.496;2023-02-19T10:00:54;95907.31;;;-5.07;100.00
69848;BME280;57143;55.940;37.496;2023-02-19T10:03:25;95902.91;;;-5.13;100.00
69848;BME280;57143;55.940;37.496;2023-02-19T10:06:17;95902.38;;;-5.21;100.00
69848;BME280;57143;55.940;37.496;2023-02-19T10:08:47;95902.69;;;-5.11;100.00
69848;BME280;57143;55.940;37.496;2023-02-19T10:11:18;95906.94;;;-5.10;100.00
69848;BME280;57143;55.940;37.496;2023-02-19T10:13:48;95863.78;;;-5.22;100.00
69848;BME280;57143;55.940;37.496;2023-02-19T10:16:20;95854.81;;;-5.15;100.00
69848;BME280;57143;55.940;37.496;2023-02-19T10:18:48;95891.75;;;-4.84;100.00
69848;BME280;57143;55.940;37.496;2023-02-19T10:21:17;95886.50;;;-4.90;100.00
69848;BME280;57143;55.940;37.496;2023-02-19T10:23:46;95892.06;;;-4.74;100.00
69848;BME280;57143;55.940;37.496;2023-02-19T10:26:14;95901.47;;;-4.84;100.00
69848;BME280;57143;55.940;37.496;2023-02-19T10:28:41;95904.34;;;-4.86;100.00
69848;BME280;57143;55.940;37.496;2023-02-19T10:31:15;95903.56;;;-4.93;100.00
69848;BME280;57143;55.940;37.496;2023-02-19T10:33:48;95910.22;;;-5.15;100.00
69848;BME280;57143;55.940;37.496;2023-02-19T10:36:25;95918.19;;;-4.90;100.00
69848;BME280;57143;55.940;37.496;2023-02-19T10:38:55;95917.13;;;-5.14;100.00
69848;BME280;57143;55.940;37.496;2023-02-19T10:41:24;95933.09;;;-5.02;100.00
69848;BME280;57143;55.940;37.496;2023-02-19T10:43:54;95886.22;;;-5.38;100.00
69848;BME280;57143;55.940;37.496;2023-02-19T10:46:26;95931.09;;;-5.07;100.00
69848;BME280;57143;55.940;37.496;2023-02-19T10:48:56;95928.28;;;-5.12;100.00
69848;BME280;57143;55.940;37.496;2023-02-19T10:51:30;95914.88;;;-5.10;100.00
69848;BME280;57143;55.940;37.496;2023-02-19T10:54:04;95831.72;;;-5.57;100.00
69848;BME280;57143;55.940;37.496;2023-02-19T10:56:32;95896.75;;;-4.76;100.00
69848;BME280;57143;55.940;37.496;2023-02-19T10:59:22;95881.25;;;-4.97;100.00
69848;BME280;57143;55.940;37.496;2023-02-19T11:01:55;95894.22;;;-4.89;100.00
69848;BME280;57143;55.940;37.496;2023-02-19T11:04:24;95851.59;;;-4.92;100.00
69848;BME280;57143;55.940;37.496;2023-02-19T11:06:52;95867.69;;;-4.76;100.00
69848;BME280;57143;55.940;37.496;2023-02-19T11:09:24;95884.56;;;-4.77;100.00
69848;BME280;57143;55.940;37.496;2023-02-19T11:11:53;95879.00;;;-4.93;100.00
69848;BME280;57143;55.940;37.496;2023-02-19T11:14:23;95909.78;;;-4.56;100.00
69848;BME280;57143;55.940;37.496;2023-02-19T11:16:54;95897.13;;;-4.72;100.00
69848;BME280;57143;55.940;37.496;2023-02-19T11:19:28;95908.50;;;-4.72;100.00
69848;BME280;57143;55.940;37.496;2023-02-19T11:21:58;95934.19;;;-4.60;100.00
69848;BME280;57143;55.940;37.496;2023-02-19T11:24:31;95934.16;;;-4.54;100.00
69848;BME280;57143;55.940;37.496;2023-02-19T11:27:01;95903.28;;;-4.78;100.00
69848;BME280;57143;55.940;37.496;2023-02-19T11:29:30;95946.81;;;-4.38;100.00
69848;BME280;57143;55.940;37.496;2023-02-19T11:32:23;95965.88;;;-4.54;100.00
69848;BME280;57143;55.940;37.496;2023-02-19T11:34:51;95966.06;;;-4.55;100.00
69848;BME280;57143;55.940;37.496;2023-02-19T11:37:19;95990.28;;;-4.58;100.00
69848;BME280;57143;55.940;37.496;2023-02-19T11:39:49;95987.72;;;-4.72;100.00
69848;BME280;57143;55.940;37.496;2023-02-19T11:42:37;95962.66;;;-4.87;100.00
69848;BME280;57143;55.940;37.496;2023-02-19T11:45:19;95974.66;;;-4.60;100.00
69848;BME280;57143;55.940;37.496;2023-02-19T11:48:25;95977.59;;;-4.75;100.00
69848;BME280;57143;55.940;37.496;2023-02-19T11:51:14;95989.50;;;-4.65;100.00
69848;BME280;57143;55.940;37.496;2023-02-19T11:53:47;95966.06;;;-4.55;100.00
69848;BME280;57143;55.940;37.496;2023-02-19T11:56:24;95964.06;;;-4.60;100.00
69848;BME280;57143;55.940;37.496;2023-02-19T11:59:00;95954.72;;;-4.87;100.00
69848;BME280;57143;55.940;37.496;2023-02-19T12:04:53;95932.63;;;-4.93;100.00
69848;BME280;57143;55.940;37.496;2023-02-19T12:07:46;95933.44;;;-4.92;100.00
69848;BME280;57143;55.940;37.496;2023-02-19T12:10:19;95924.19;;;-5.08;100.00
69848;BME280;57143;55.940;37.496;2023-02-19T12:12:54;95921.78;;;-5.09;100.00
69848;BME280;57143;55.940;37.496;2023-02-19T12:15:37;95916.00;;;-5.00;100.00
69848;BME280;57143;55.940;37.496;2023-02-19T12:21:28;95890.88;;;-5.09;100.00
69848;BME280;57143;55.940;37.496;2023-02-19T12:24:21;95886.88;;;-5.11;100.00
69848;BME280;57143;55.940;37.496;2023-02-19T12:27:01;95878.41;;;-4.95;100.00
69848;BME280;57143;55.940;37.496;2023-02-19T12:29:58;95893.28;;;-5.01;100.00
69848;BME280;57143;55.940;37.496;2023-02-19T12:32:45;95883.34;;;-5.05;100.00
69848;BME280;57143;55.940;37.496;2023-02-19T12:35:29;95885.63;;;-5.09;100.00
69848;BME280;57143;55.940;37.496;2023-02-19T12:38:08;95888.72;;;-5.18;100.00
69848;BME280;57143;55.940;37.496;2023-02-19T12:40:50;95890.47;;;-5.06;100.00
69848;BME280;57143;55.940;37.496;2023-02-19T12:43:21;95873.00;;;-5.38;100.00
69848;BME280;57143;55.940;37.496;2023-02-19T12:45:53;95849.59;;;-5.28;100.00
69848;BME280;57143;55.940;37.496;2023-02-19T12:48:28;95867.34;;;-5.10;100.00
69848;BME280;57143;55.940;37.496;2023-02-19T12:51:00;95879.38;;;-5.14;100.00
69848;BME280;57143;55.940;37.496;2023-02-19T12:53:38;95859.16;;;-5.27;100.00
69848;BME280;57143;55.940;37.496;2023-02-19T12:56:12;95753.34;;;-5.99;100.00
69848;BME280;57143;55.940;37.496;2023-02-19T12:58:43;95800.53;;;-5.60;100.00
69848;BME280;57143;55.940;37.496;2023-02-19T13:01:17;95828.94;;;-5.31;100.00
69848;BME280;57143;55.940;37.496;2023-02-19T13:03:49;95779.59;;;-5.55;100.00
69848;BME280;57143;55.940;37.496;2023-02-19T13:06:25;95814.69;;;-5.23;100.00
69848;BME280;57143;55.940;37.496;2023-02-19T13:09:01;95805.13;;;-5.24;100.00